Time;durP1;ratioP1;P1;durP2;ratioP2;P2;SDS_P1;SDS_P2;PMS_P1;PMS_P2;Temp;Humidity;BMP_temperature;BMP_pressure;BME280_temperature;BME280_humidity;BME280_pressure;Samples;Min_cycle;Max_cycle;Signal;HPM_P1;HPM_P2
2022/05/21 00:01:23;;;;;;;;;3.00;1.25;;;;;;;;5077484;27;45292;-72
2022/05/21 00:03:48;;;;;;;;;1.00;1.00;;;;;;;;5077251;28;45404;-72
2022/05/21 00:06:14;;;;;;;;;1.00;1.00;;;;;;;;5077578;27;45318;-71
2022/05/21 00:08:39;;;;;;;;;1.75;1.75;;;;;;;;5076481;27;46834;-72
2022/05/21 00:11:05;;;;;;;;;1.00;1.00;;;;;;;;5077537;27;45433;-72
2022/05/21 00:13:30;;;;;;;;;1.75;1.00;;;;;;;;5077724;28;45371;-71
2022/05/21 00:15:55;;;;;;;;;2.00;1.00;;;;;;;;5077594;27;45520;-72
2022/05/21 00:18:20;;;;;;;;;3.75;1.00;;;;;;;;5077520;27;45439;-72
2022/05/21 00:20:49;;;;;;;;;0.75;0.75;;;;;;;;5077092;27;45346;-72
2022/05/21 00:23:14;;;;;;;;;1.00;1.00;;;;;;;;5077190;27;45286;-72
2022/05/21 00:25:40;;;;;;;;;2.50;1.00;;;;;;;;5077819;27;45454;-71
2022/05/21 00:28:05;;;;;;;;;1.75;1.75;;;;;;;;5077148;28;45425;-71
2022/05/21 00:30:32;;;;;;;;;1.00;1.00;;;;;;;;5077156;27;45376;-72
2022/05/21 00:32:57;;;;;;;;;1.00;1.00;;;;;;;;5077445;27;45295;-72
2022/05/21 00:35:22;;;;;;;;;1.25;1.00;;;;;;;;5077393;27;45452;-72
2022/05/21 00:37:47;;;;;;;;;2.00;1.00;;;;;;;;5076809;28;45586;-72
2022/05/21 00:40:13;;;;;;;;;1.50;1.50;;;;;;;;5077276;27;45416;-72
2022/05/21 00:42:44;;;;;;;;;3.50;1.00;;;;;;;;5077336;27;45269;-72
2022/05/21 00:45:10;;;;;;;;;2.00;2.00;;;;;;;;5077288;27;45332;-72
2022/05/21 00:47:36;;;;;;;;;1.25;1.25;;;;;;;;5076853;27;45490;-72
2022/05/21 00:50:02;;;;;;;;;1.00;1.00;;;;;;;;5076149;27;45388;-72
2022/05/21 00:52:27;;;;;;;;;2.50;2.00;;;;;;;;5077150;27;45325;-71
2022/05/21 00:55:02;;;;;;;;;1.75;0.00;;;;;;;;5076946;27;45406;-72
2022/05/21 00:57:27;;;;;;;;;1.25;1.25;;;;;;;;5076718;27;47391;-72
2022/05/21 01:00:13;;;;;;;;;4.00;1.50;;;;;;;;5077041;27;45395;-72
2022/05/21 01:02:39;;;;;;;;;17.67;11.00;;;;;;;;5076311;28;45331;-72
2022/05/21 01:05:08;;;;;;;;;1.00;1.00;;;;;;;;5077004;27;45448;-72
2022/05/21 01:07:35;;;;;;;;;5.75;1.25;;;;;;;;5074959;28;45834;-72
2022/05/21 01:10:00;;;;;;;;;3.25;1.75;;;;;;;;5076246;28;45285;-72
2022/05/21 01:12:28;;;;;;;;;1.75;1.75;;;;;;;;5077003;27;45335;-72
2022/05/21 01:14:59;;;;;;;;;1.00;1.00;;;;;;;;5076804;27;45552;-72
2022/05/21 01:17:24;;;;;;;;;2.00;2.00;;;;;;;;5079504;27;46619;-72
2022/05/21 01:19:58;;;;;;;;;1.00;0.00;;;;;;;;5080294;27;45327;-72
2022/05/21 01:22:24;;;;;;;;;3.00;1.25;;;;;;;;5080332;27;45312;-72
2022/05/21 01:24:50;;;;;;;;;3.25;1.50;;;;;;;;5080483;27;45458;-72
2022/05/21 01:27:15;;;;;;;;;2.50;2.00;;;;;;;;5080324;27;45347;-72
2022/05/21 01:29:40;;;;;;;;;1.00;1.00;;;;;;;;5079830;27;45354;-72
2022/05/21 01:32:06;;;;;;;;;0.75;0.75;;;;;;;;5080299;28;45407;-72
2022/05/21 01:34:31;;;;;;;;;2.75;1.50;;;;;;;;5080148;27;45296;-72
2022/05/21 01:36:57;;;;;;;;;2.75;2.00;;;;;;;;5079841;27;46427;-71
2022/05/21 01:39:22;;;;;;;;;2.50;1.00;;;;;;;;5079912;27;45526;-72
2022/05/21 01:41:48;;;;;;;;;2.50;1.00;;;;;;;;5079988;28;45283;-72
2022/05/21 01:46:58;;;;;;;;;1.00;1.00;;;;;;;;5079551;28;45414;-72
2022/05/21 01:49:23;;;;;;;;;5.00;2.00;;;;;;;;5079670;27;45281;-72
2022/05/21 01:51:48;;;;;;;;;1.25;1.25;;;;;;;;5080162;27;45397;-72
2022/05/21 01:54:13;;;;;;;;;3.00;1.75;;;;;;;;5079859;27;45237;-72
2022/05/21 01:56:39;;;;;;;;;3.25;2.00;;;;;;;;5079521;28;46649;-72
2022/05/21 01:59:04;;;;;;;;;1.00;1.00;;;;;;;;5079872;28;45363;-72
2022/05/21 02:01:30;;;;;;;;;6.00;3.00;;;;;;;;5079627;27;45367;-72
2022/05/21 02:03:55;;;;;;;;;3.00;2.00;;;;;;;;5079758;27;45392;-72
2022/05/21 02:06:20;;;;;;;;;0.75;0.75;;;;;;;;5079569;27;46496;-72
2022/05/21 02:08:45;;;;;;;;;2.50;2.00;;;;;;;;5079249;27;45161;-72
2022/05/21 02:11:12;;;;;;;;;3.00;2.00;;;;;;;;5079633;27;45343;-72
2022/05/21 02:13:37;;;;;;;;;2.75;2.00;;;;;;;;5079641;27;45899;-72
2022/05/21 02:16:03;;;;;;;;;5.00;2.00;;;;;;;;5079299;27;46460;-72
2022/05/21 02:18:29;;;;;;;;;4.00;2.50;;;;;;;;5079342;27;45247;-72
2022/05/21 02:20:54;;;;;;;;;2.00;2.00;;;;;;;;5079411;27;45288;-72
2022/05/21 02:23:20;;;;;;;;;2.00;1.25;;;;;;;;5079673;27;45356;-72
2022/05/21 02:25:46;;;;;;;;;3.25;3.00;;;;;;;;5078899;27;46604;-72
2022/05/21 02:28:12;;;;;;;;;4.00;3.00;;;;;;;;5078411;27;45389;-72
2022/05/21 02:30:38;;;;;;;;;4.75;1.25;;;;;;;;5079142;27;45269;-72
2022/05/21 02:33:03;;;;;;;;;8.50;3.50;;;;;;;;5079324;27;45474;-72
2022/05/21 02:35:28;;;;;;;;;3.00;2.25;;;;;;;;5074141;27;46431;-72
2022/05/21 02:40:38;;;;;;;;;1.50;1.50;;;;;;;;5077833;28;45303;-72
2022/05/21 02:43:03;;;;;;;;;4.25;2.00;;;;;;;;5079218;28;45418;-72
2022/05/21 02:45:28;;;;;;;;;6.67;5.00;;;;;;;;5078573;27;47471;-71
2022/05/21 02:47:54;;;;;;;;;3.00;1.75;;;;;;;;5078650;27;45364;-71
2022/05/21 02:50:21;;;;;;;;;5.00;2.75;;;;;;;;5084104;27;46554;-72
2022/05/21 02:52:46;;;;;;;;;4.00;2.50;;;;;;;;5079703;27;45353;-72
2022/05/21 02:55:13;;;;;;;;;5.00;2.00;;;;;;;;5078307;27;46972;-72
2022/05/21 02:57:38;;;;;;;;;6.00;3.50;;;;;;;;5082298;27;46788;-72
2022/05/21 03:00:09;;;;;;;;;3.00;2.00;;;;;;;;5080331;27;45338;-73
2022/05/21 03:02:34;;;;;;;;;2.00;2.00;;;;;;;;5058610;28;45380;-72
2022/05/21 03:04:59;;;;;;;;;4.50;4.00;;;;;;;;5075641;28;47387;-72
2022/05/21 03:07:25;;;;;;;;;4.00;4.00;;;;;;;;5078308;28;45336;-72
2022/05/21 03:12:34;;;;;;;;;4.67;3.00;;;;;;;;5078668;28;45477;-72
2022/05/21 03:15:00;;;;;;;;;6.00;2.50;;;;;;;;5078238;27;46192;-73
2022/05/21 03:17:26;;;;;;;;;6.00;3.25;;;;;;;;5078223;27;45423;-72
2022/05/21 03:19:51;;;;;;;;;3.75;3.75;;;;;;;;5078448;27;45379;-72
2022/05/21 03:22:16;;;;;;;;;7.25;3.25;;;;;;;;5077179;27;45390;-72
2022/05/21 03:24:43;;;;;;;;;7.25;3.00;;;;;;;;5077946;28;45330;-72
2022/05/21 03:27:08;;;;;;;;;3.00;3.00;;;;;;;;5078128;28;45163;-72
2022/05/21 03:29:34;;;;;;;;;4.25;2.25;;;;;;;;5078103;27;45256;-72
2022/05/21 03:31:59;;;;;;;;;2.00;2.00;;;;;;;;5078266;27;46794;-72
2022/05/21 03:34:24;;;;;;;;;6.00;3.00;;;;;;;;5082190;27;46656;-72
2022/05/21 03:36:50;;;;;;;;;3.00;2.00;;;;;;;;5096460;27;45315;-72
2022/05/21 03:39:15;;;;;;;;;3.75;3.00;;;;;;;;5086567;27;45453;-72
2022/05/21 03:41:40;;;;;;;;;5.25;3.00;;;;;;;;5083049;27;45221;-72
2022/05/21 03:44:05;;;;;;;;;6.75;3.00;;;;;;;;5096272;27;46435;-72
2022/05/21 03:46:31;;;;;;;;;3.75;2.50;;;;;;;;5098603;27;45652;-72
2022/05/21 03:48:56;;;;;;;;;3.50;3.50;;;;;;;;5091879;27;45323;-73
2022/05/21 03:51:21;;;;;;;;;6.00;3.00;;;;;;;;5078065;27;45730;-72
2022/05/21 03:53:46;;;;;;;;;4.00;4.00;;;;;;;;5089354;27;45623;-72
2022/05/21 03:56:11;;;;;;;;;6.33;3.00;;;;;;;;5089930;27;45410;-72
2022/05/21 03:58:37;;;;;;;;;7.00;3.50;;;;;;;;5079036;27;45436;-72
2022/05/21 04:01:02;;;;;;;;;6.00;6.00;;;;;;;;5098379;27;45330;-72
2022/05/21 04:03:28;;;;;;;;;6.25;3.00;;;;;;;;5089261;27;46362;-73
2022/05/21 04:05:53;;;;;;;;;4.75;4.75;;;;;;;;5077833;27;45335;-72
2022/05/21 04:08:19;;;;;;;;;5.00;3.25;;;;;;;;5077688;27;45355;-72
2022/05/21 04:10:44;;;;;;;;;7.00;4.00;;;;;;;;5087374;27;45401;-72
2022/05/21 04:13:09;;;;;;;;;5.75;3.00;;;;;;;;5095395;27;46598;-72
2022/05/21 04:15:35;;;;;;;;;5.75;3.00;;;;;;;;5077427;27;45375;-72
2022/05/21 04:18:00;;;;;;;;;4.75;3.75;;;;;;;;5088831;27;45394;-71
2022/05/21 04:20:26;;;;;;;;;6.50;3.00;;;;;;;;5094724;27;45447;-72
2022/05/21 04:22:51;;;;;;;;;5.50;3.25;;;;;;;;5077336;27;47466;-72
2022/05/21 04:25:16;;;;;;;;;4.00;4.00;;;;;;;;5090188;27;45415;-72
2022/05/21 04:27:42;;;;;;;;;5.50;4.00;;;;;;;;5093281;27;45298;-72
2022/05/21 04:30:12;;;;;;;;;8.75;4.75;;;;;;;;5079060;27;45460;-72
2022/05/21 04:32:37;;;;;;;;;10.00;3.25;;;;;;;;5081235;27;47427;-72
2022/05/21 04:35:03;;;;;;;;;5.25;3.75;;;;;;;;5082806;27;45446;-72
2022/05/21 04:37:28;;;;;;;;;3.00;2.00;;;;;;;;5097872;27;45291;-72
2022/05/21 04:39:53;;;;;;;;;8.00;6.00;;;;;;;;5079034;27;45341;-72
2022/05/21 04:42:18;;;;;;;;;3.75;2.25;;;;;;;;5086334;27;45601;-72
2022/05/21 04:44:44;;;;;;;;;4.50;3.25;;;;;;;;5096756;27;45316;-72
2022/05/21 04:47:09;;;;;;;;;5.00;5.00;;;;;;;;5077303;27;45281;-72
2022/05/21 04:49:34;;;;;;;;;5.33;4.00;;;;;;;;5077448;27;45274;-72
2022/05/21 04:52:01;;;;;;;;;5.00;5.00;;;;;;;;5081647;27;45469;-72
2022/05/21 04:54:26;;;;;;;;;5.00;3.25;;;;;;;;5086342;27;45344;-72
2022/05/21 04:56:51;;;;;;;;;5.00;3.75;;;;;;;;5080678;27;45373;-72
2022/05/21 04:59:16;;;;;;;;;7.00;3.75;;;;;;;;5085700;27;45333;-74
2022/05/21 05:01:41;;;;;;;;;3.50;3.25;;;;;;;;5100794;27;46034;-73
2022/05/21 05:04:07;;;;;;;;;5.75;3.25;;;;;;;;5101182;27;45276;-74
2022/05/21 05:06:33;;;;;;;;;7.75;3.50;;;;;;;;5099961;27;45295;-75
2022/05/21 05:08:58;;;;;;;;;6.25;5.00;;;;;;;;5082253;27;45379;-74
2022/05/21 05:11:24;;;;;;;;;4.00;2.00;;;;;;;;5098641;27;46688;-74
2022/05/21 05:13:49;;;;;;;;;3.25;2.75;;;;;;;;5100602;27;45199;-74
2022/05/21 05:16:14;;;;;;;;;7.33;5.67;;;;;;;;5082589;27;45383;-76
2022/05/21 05:18:40;;;;;;;;;16.67;16.67;;;;;;;;5080605;28;45209;-74
2022/05/21 05:21:05;;;;;;;;;4.25;2.75;;;;;;;;5079986;27;47028;-75
2022/05/21 05:23:30;;;;;;;;;5.00;3.25;;;;;;;;5080179;27;45331;-74
2022/05/21 05:25:59;;;;;;;;;5.00;4.75;;;;;;;;5079946;27;45268;-75
2022/05/21 05:28:24;;;;;;;;;6.00;3.50;;;;;;;;5080516;27;45267;-75
2022/05/21 05:30:49;;;;;;;;;15.67;10.67;;;;;;;;5099091;27;45621;-74
2022/05/21 05:33:15;;;;;;;;;5.25;3.50;;;;;;;;5088409;27;45905;-74
2022/05/21 05:35:41;;;;;;;;;5.33;4.00;;;;;;;;5090734;27;45473;-74
2022/05/21 05:38:07;;;;;;;;;8.25;4.75;;;;;;;;5099131;27;45538;-75
2022/05/21 05:40:33;;;;;;;;;8.00;7.00;;;;;;;;5099845;27;46505;-75
2022/05/21 05:42:59;;;;;;;;;7.75;3.75;;;;;;;;5100619;27;45204;-76
2022/05/21 05:45:24;;;;;;;;;5.00;4.25;;;;;;;;5091431;27;45450;-74
2022/05/21 05:47:49;;;;;;;;;7.00;4.00;;;;;;;;5100863;27;45359;-75
2022/05/21 05:50:14;;;;;;;;;3.00;2.50;;;;;;;;5099565;27;45338;-74
2022/05/21 05:52:40;;;;;;;;;7.00;6.00;;;;;;;;5100498;27;45425;-74
2022/05/21 05:55:05;;;;;;;;;4.00;3.75;;;;;;;;5099616;27;45192;-74
2022/05/21 05:57:30;;;;;;;;;4.50;4.00;;;;;;;;5079405;27;45334;-74
2022/05/21 05:59:56;;;;;;;;;8.25;5.00;;;;;;;;5080611;27;45484;-74
2022/05/21 06:05:11;;;;;;;;;4.50;4.25;;;;;;;;5079502;27;45418;-74
2022/05/21 06:07:44;;;;;;;;;5.00;4.75;;;;;;;;5080163;27;45499;-74
2022/05/21 06:10:09;;;;;;;;;3.33;3.00;;;;;;;;5079203;27;45576;-73
2022/05/21 06:12:35;;;;;;;;;7.50;3.25;;;;;;;;5079123;27;46116;-73
2022/05/21 06:15:00;;;;;;;;;4.33;4.00;;;;;;;;5080034;27;45255;-74
2022/05/21 06:17:26;;;;;;;;;3.50;2.50;;;;;;;;5079534;27;45423;-74
2022/05/21 06:19:52;;;;;;;;;6.33;4.33;;;;;;;;5079940;27;46503;-73
2022/05/21 06:22:17;;;;;;;;;11.33;5.33;;;;;;;;5099637;27;45312;-72
2022/05/21 06:24:42;;;;;;;;;5.00;4.50;;;;;;;;5099747;27;45545;-73
2022/05/21 06:27:08;;;;;;;;;7.25;5.25;;;;;;;;5099424;27;45446;-72
2022/05/21 06:29:35;;;;;;;;;6.50;4.75;;;;;;;;5078935;27;46612;-73
2022/05/21 06:32:01;;;;;;;;;10.00;3.50;;;;;;;;5079121;27;45302;-73
2022/05/21 06:34:26;;;;;;;;;7.75;5.25;;;;;;;;5090633;27;45768;-74
2022/05/21 06:36:51;;;;;;;;;10.00;6.00;;;;;;;;5079241;27;45280;-74
2022/05/21 06:39:16;;;;;;;;;6.00;6.00;;;;;;;;5094413;27;46573;-73
2022/05/21 06:41:41;;;;;;;;;5.25;4.25;;;;;;;;5084262;27;45434;-73
2022/05/21 06:44:07;;;;;;;;;12.33;6.33;;;;;;;;5095816;27;45416;-72
2022/05/21 06:46:32;;;;;;;;;9.33;6.67;;;;;;;;5079360;27;45446;-73
2022/05/21 06:48:58;;;;;;;;;7.25;4.00;;;;;;;;5080600;27;46357;-72
2022/05/21 06:51:23;;;;;;;;;8.75;3.00;;;;;;;;5079827;27;45414;-72
2022/05/21 06:53:49;;;;;;;;;4.00;3.67;;;;;;;;5079372;27;45429;-73
2022/05/21 06:56:15;;;;;;;;;4.00;3.75;;;;;;;;5085875;27;45583;-73
2022/05/21 06:58:41;;;;;;;;;9.00;7.33;;;;;;;;5078411;27;46399;-73
2022/05/21 07:01:06;;;;;;;;;8.00;5.67;;;;;;;;5078455;27;45433;-73
2022/05/21 07:03:32;;;;;;;;;6.50;4.50;;;;;;;;5078810;27;45248;-73
2022/05/21 07:08:41;;;;;;;;;5.00;3.00;;;;;;;;5086273;27;45512;-74
2022/05/21 07:11:06;;;;;;;;;4.33;4.33;;;;;;;;5087151;27;45494;-73
2022/05/21 07:13:32;;;;;;;;;4.67;4.00;;;;;;;;5098226;27;45360;-74
2022/05/21 07:15:57;;;;;;;;;9.00;4.00;;;;;;;;5099293;27;45404;-74
2022/05/21 07:18:23;;;;;;;;;5.00;3.00;;;;;;;;5095710;27;46471;-75
2022/05/21 07:20:49;;;;;;;;;4.00;3.33;;;;;;;;5098367;27;45355;-74
2022/05/21 07:23:15;;;;;;;;;5.25;2.75;;;;;;;;5098727;27;45489;-75
2022/05/21 07:25:41;;;;;;;;;5.00;3.00;;;;;;;;5096427;27;45567;-74
2022/05/21 07:28:07;;;;;;;;;5.67;3.00;;;;;;;;5080005;27;45599;-75
2022/05/21 07:30:33;;;;;;;;;6.00;5.00;;;;;;;;5080317;27;45417;-74
2022/05/21 07:32:58;;;;;;;;;4.75;4.25;;;;;;;;5083873;27;45390;-73
2022/05/21 07:35:25;;;;;;;;;8.33;3.00;;;;;;;;5097864;27;45342;-73
2022/05/21 07:37:51;;;;;;;;;6.33;4.67;;;;;;;;5077913;27;46247;-73
2022/05/21 07:40:17;;;;;;;;;3.67;3.00;;;;;;;;5098301;27;45365;-72
2022/05/21 07:42:43;;;;;;;;;4.00;4.00;;;;;;;;5098318;27;45239;-72
2022/05/21 07:45:09;;;;;;;;;7.00;4.67;;;;;;;;5080334;27;45490;-73
2022/05/21 07:47:35;;;;;;;;;7.50;4.25;;;;;;;;5077762;27;47360;-73
2022/05/21 07:50:00;;;;;;;;;3.00;3.00;;;;;;;;5077595;27;45254;-72
2022/05/21 07:52:26;;;;;;;;;5.00;3.00;;;;;;;;5077802;27;45326;-73
2022/05/21 07:54:51;;;;;;;;;5.67;3.33;;;;;;;;5088345;27;45499;-74
2022/05/21 07:57:17;;;;;;;;;4.33;3.33;;;;;;;;5077198;27;47446;-74
2022/05/21 07:59:42;;;;;;;;;5.33;4.00;;;;;;;;5077762;28;45384;-74
2022/05/21 08:02:12;;;;;;;;;6.33;4.00;;;;;;;;5077893;27;45387;-72
2022/05/21 08:04:37;;;;;;;;;19.00;17.33;;;;;;;;5092580;27;45552;-74
2022/05/21 08:07:02;;;;;;;;;7.67;3.67;;;;;;;;5097742;27;46841;-73
2022/05/21 08:09:27;;;;;;;;;5.33;3.00;;;;;;;;5083503;27;45653;-74
2022/05/21 08:11:54;;;;;;;;;3.33;3.33;;;;;;;;5097998;27;45476;-74
2022/05/21 08:14:20;;;;;;;;;6.33;5.00;;;;;;;;5087455;27;45344;-76
2022/05/21 08:16:45;;;;;;;;;3.67;3.00;;;;;;;;5086712;27;46702;-74
2022/05/21 08:19:12;;;;;;;;;8.00;5.00;;;;;;;;5077323;27;45242;-75
2022/05/21 08:21:37;;;;;;;;;8.00;5.00;;;;;;;;5084996;27;45378;-74
2022/05/21 08:26:56;;;;;;;;;5.67;3.33;;;;;;;;5102579;27;45748;-73
2022/05/21 08:29:22;;;;;;;;;5.33;3.67;;;;;;;;5083639;27;45290;-73
2022/05/21 08:31:47;;;;;;;;;8.33;4.67;;;;;;;;5077248;28;45430;-73
2022/05/21 08:34:12;;;;;;;;;4.33;3.00;;;;;;;;5083917;27;45734;-77
2022/05/21 08:36:38;;;;;;;;;3.67;3.00;;;;;;;;5082329;27;46477;-76
2022/05/21 08:39:03;;;;;;;;;5.00;3.00;;;;;;;;5093684;27;45527;-76
2022/05/21 08:41:31;;;;;;;;;7.33;7.00;;;;;;;;5102996;27;45673;-76
2022/05/21 08:44:00;;;;;;;;;6.00;5.00;;;;;;;;5102817;27;45398;-76
2022/05/21 08:46:25;;;;;;;;;3.33;3.00;;;;;;;;5088507;27;47037;-75
2022/05/21 08:48:56;;;;;;;;;2.33;2.33;;;;;;;;5092723;27;45472;-75
2022/05/21 08:51:24;;;;;;;;;6.00;3.67;;;;;;;;5090115;27;45355;-77
2022/05/21 08:53:50;;;;;;;;;3.67;3.67;;;;;;;;5103290;27;45423;-77
2022/05/21 08:56:16;;;;;;;;;2.67;1.67;;;;;;;;5101408;27;46998;-77
2022/05/21 08:58:52;;;;;;;;;1.67;1.67;;;;;;;;5099797;27;45481;-76
2022/05/21 09:01:22;;;;;;;;;5.00;2.00;;;;;;;;5102685;27;45714;-76
2022/05/21 09:03:50;;;;;;;;;4.00;4.00;;;;;;;;5102773;27;45499;-73
2022/05/21 09:06:18;;;;;;;;;5.00;5.00;;;;;;;;5096106;27;46720;-75
2022/05/21 09:08:46;;;;;;;;;8.67;4.00;;;;;;;;5102551;27;45356;-77
2022/05/21 09:11:40;;;;;;;;;1.67;1.67;;;;;;;;5102637;27;45421;-76
2022/05/21 09:14:16;;;;;;;;;2.33;1.33;;;;;;;;5079754;28;45433;-76
2022/05/21 09:16:54;;;;;;;;;3.75;1.25;;;;;;;;5079302;28;45544;-76
2022/05/21 09:19:21;;;;;;;;;2.00;2.00;;;;;;;;5079414;28;45570;-76
2022/05/21 09:21:46;;;;;;;;;2.00;2.00;;;;;;;;5077669;28;45401;-76
2022/05/21 09:24:31;;;;;;;;;7.33;5.33;;;;;;;;5074785;28;45500;-77
2022/05/21 09:26:56;;;;;;;;;4.67;1.67;;;;;;;;5058690;28;46754;-74
2022/05/21 09:29:26;;;;;;;;;4.00;3.00;;;;;;;;5058403;28;45467;-75
2022/05/21 09:31:53;;;;;;;;;3.67;2.00;;;;;;;;5056014;28;45866;-75
2022/05/21 09:34:23;;;;;;;;;3.00;3.00;;;;;;;;5058642;28;45591;-76
2022/05/21 09:36:49;;;;;;;;;5.67;2.00;;;;;;;;5059750;28;47211;-76
2022/05/21 09:39:31;;;;;;;;;6.00;5.00;;;;;;;;5057206;28;45439;-76
2022/05/21 09:45:24;;;;;;;;;3.00;3.00;;;;;;;;4996953;28;45547;-73
2022/05/21 09:47:53;;;;;;;;;4.67;2.67;;;;;;;;5006787;28;46686;-76
2022/05/21 09:50:26;;;;;;;;;3.00;3.00;;;;;;;;5024896;28;45297;-74
2022/05/21 09:52:51;;;;;;;;;3.67;3.00;;;;;;;;5025242;28;45422;-74
2022/05/21 09:55:22;;;;;;;;;3.33;3.33;;;;;;;;5018246;28;45291;-74
2022/05/21 09:57:48;;;;;;;;;5.00;5.00;;;;;;;;5016866;28;47262;-74
2022/05/21 10:00:24;;;;;;;;;5.00;5.00;;;;;;;;5016777;28;45294;-73
2022/05/21 10:02:54;;;;;;;;;4.33;3.00;;;;;;;;5022378;28;45490;-73
2022/05/21 10:05:24;;;;;;;;;6.33;3.67;;;;;;;;5020867;28;45397;-73
2022/05/21 10:11:11;;;;;;;;;6.33;4.33;;;;;;;;5027833;28;45600;-72
2022/05/21 10:13:43;;;;;;;;;5.33;3.00;;;;;;;;4980498;28;45491;-72
2022/05/21 10:16:27;;;;;;;;;15.67;13.33;;;;;;;;4994893;28;45365;-72
2022/05/21 10:19:13;;;;;;;;;2.67;2.67;;;;;;;;4996405;28;46130;-72
2022/05/21 10:22:01;;;;;;;;;2.00;2.00;;;;;;;;4969172;28;45385;-73
2022/05/21 10:24:38;;;;;;;;;5.33;1.00;;;;;;;;4977286;28;45465;-71
2022/05/21 10:27:03;;;;;;;;;1.33;1.00;;;;;;;;4977510;28;45508;-72
2022/05/21 10:29:44;;;;;;;;;1.00;1.00;;;;;;;;5005429;28;45598;-72
2022/05/21 10:32:28;;;;;;;;;1.00;1.00;;;;;;;;5014954;28;45438;-72
2022/05/21 10:34:53;;;;;;;;;2.00;2.00;;;;;;;;5015529;28;45374;-72
2022/05/21 10:37:21;;;;;;;;;2.33;1.33;;;;;;;;5016065;28;45338;-71
2022/05/21 10:39:46;;;;;;;;;1.00;1.00;;;;;;;;5013482;28;46427;-73
2022/05/21 10:42:15;;;;;;;;;1.67;1.67;;;;;;;;5015778;28;45410;-70
2022/05/21 10:44:43;;;;;;;;;6.00;3.00;;;;;;;;5016029;28;45552;-71
2022/05/21 10:47:15;;;;;;;;;7.00;2.00;;;;;;;;5028600;28;45393;-73
2022/05/21 10:49:46;;;;;;;;;4.00;1.00;;;;;;;;5055759;28;46350;-71
2022/05/21 10:52:22;;;;;;;;;1.00;0.67;;;;;;;;5055722;28;45408;-72
2022/05/21 10:55:11;;;;;;;;;9.00;8.00;;;;;;;;5056362;28;45441;-72
2022/05/21 10:57:36;;;;;;;;;22.00;20.00;;;;;;;;5056328;28;45365;-72
2022/05/21 11:00:07;;;;;;;;;1.00;1.00;;;;;;;;5055525;28;45755;-72
2022/05/21 11:02:39;;;;;;;;;4.67;3.00;;;;;;;;5058155;28;45277;-73
2022/05/21 11:05:32;;;;;;;;;3.00;2.00;;;;;;;;5058448;28;45283;-72
2022/05/21 11:08:15;;;;;;;;;2.33;1.00;;;;;;;;5058617;28;45343;-75
2022/05/21 11:10:43;;;;;;;;;0.33;0.33;;;;;;;;5057883;28;46991;-74
2022/05/21 11:13:26;;;;;;;;;3.67;2.00;;;;;;;;5059798;28;45510;-73
2022/05/21 11:15:54;;;;;;;;;1.67;1.67;;;;;;;;5078092;27;45371;-72
2022/05/21 11:18:23;;;;;;;;;1.00;1.00;;;;;;;;5078741;27;45434;-70
2022/05/21 11:21:01;;;;;;;;;4.33;4.33;;;;;;;;5078298;27;46201;-72
2022/05/21 11:23:30;;;;;;;;;16.67;10.33;;;;;;;;5078112;27;45371;-71
2022/05/21 11:25:58;;;;;;;;;1.00;1.00;;;;;;;;5078285;27;45410;-71
2022/05/21 11:28:23;;;;;;;;;2.00;2.00;;;;;;;;5078406;27;45338;-72
2022/05/21 11:30:51;;;;;;;;;3.00;2.00;;;;;;;;5077527;28;45555;-71
2022/05/21 11:39:10;;;;;;;;;2.00;2.00;;;;;;;;5078558;28;45358;-71
2022/05/21 11:41:54;;;;;;;;;1.00;1.00;;;;;;;;5078184;27;45378;-71
2022/05/21 11:47:13;;;;;;;;;4.00;2.00;;;;;;;;5082909;27;45437;-71
2022/05/21 11:49:41;;;;;;;;;3.00;2.00;;;;;;;;5078173;27;45241;-71
2022/05/21 11:52:25;;;;;;;;;4.33;2.00;;;;;;;;5077729;27;47449;-72
2022/05/21 11:54:50;;;;;;;;;3.00;1.33;;;;;;;;5077967;28;45197;-72
2022/05/21 11:57:35;;;;;;;;;1.00;1.00;;;;;;;;5077612;28;45288;-72
2022/05/21 12:00:03;;;;;;;;;1.00;1.00;;;;;;;;5077254;27;45383;-72
2022/05/21 12:02:30;;;;;;;;;0.00;0.00;;;;;;;;5077176;27;46568;-71
2022/05/21 12:04:59;;;;;;;;;3.00;1.67;;;;;;;;5077657;27;45395;-72
2022/05/21 12:07:40;;;;;;;;;4.00;3.00;;;;;;;;5076274;28;45434;-72
2022/05/21 12:10:13;;;;;;;;;1.00;1.00;;;;;;;;5077693;27;45413;-72
2022/05/21 12:13:00;;;;;;;;;2.00;2.00;;;;;;;;5076947;27;47274;-72
2022/05/21 12:15:39;;;;;;;;;3.00;3.00;;;;;;;;5077459;28;45395;-71
2022/05/21 12:18:07;;;;;;;;;3.33;2.67;;;;;;;;5077545;27;45521;-72
2022/05/21 12:20:47;;;;;;;;;3.00;2.00;;;;;;;;5077604;27;45371;-72
2022/05/21 12:23:34;;;;;;;;;1.00;1.00;;;;;;;;5077400;27;46230;-72
2022/05/21 12:26:08;;;;;;;;;1.00;1.00;;;;;;;;5077333;27;45229;-72
2022/05/21 12:28:56;;;;;;;;;1.67;1.67;;;;;;;;5076817;27;45355;-72
2022/05/21 12:31:37;;;;;;;;;1.00;1.00;;;;;;;;5056749;28;45563;-72
2022/05/21 12:34:08;;;;;;;;;3.33;0.00;;;;;;;;5056963;28;45354;-71
2022/05/21 12:36:39;;;;;;;;;0.67;0.67;;;;;;;;5064534;28;45486;-72
2022/05/21 12:39:05;;;;;;;;;1.67;1.67;;;;;;;;5059483;27;45391;-73
2022/05/21 12:41:36;;;;;;;;;7.00;1.00;;;;;;;;5057092;28;45473;-73
2022/05/21 12:44:01;;;;;;;;;2.00;1.00;;;;;;;;5056643;28;46450;-74
2022/05/21 12:46:29;;;;;;;;;2.67;2.00;;;;;;;;5056701;28;45324;-70
2022/05/21 12:48:59;;;;;;;;;2.00;0.00;;;;;;;;5057013;28;45415;-75
2022/05/21 12:51:26;;;;;;;;;1.33;1.00;;;;;;;;5056674;28;45339;-75
2022/05/21 12:53:52;;;;;;;;;2.00;1.00;;;;;;;;5064677;28;46220;-73
2022/05/21 12:56:27;;;;;;;;;3.00;1.00;;;;;;;;5059534;27;45368;-70
2022/05/21 12:59:02;;;;;;;;;1.00;1.00;;;;;;;;5056712;28;45305;-70
2022/05/21 13:01:30;;;;;;;;;1.00;1.00;;;;;;;;5056586;28;45551;-70
2022/05/21 13:03:56;;;;;;;;;2.33;1.00;;;;;;;;5079086;27;46294;-70
2022/05/21 13:06:23;;;;;;;;;2.00;1.33;;;;;;;;5081656;27;45432;-72
2022/05/21 13:08:50;;;;;;;;;1.00;1.00;;;;;;;;5080939;27;45505;-73
2022/05/21 13:11:20;;;;;;;;;1.67;0.00;;;;;;;;5090111;27;45490;-73
2022/05/21 13:13:53;;;;;;;;;1.00;1.00;;;;;;;;5098244;27;47102;-71
2022/05/21 13:16:19;;;;;;;;;5.33;3.67;;;;;;;;5081257;27;45597;-71
2022/05/21 13:18:56;;;;;;;;;1.67;1.67;;;;;;;;5060497;27;45427;-72
2022/05/21 13:21:22;;;;;;;;;1.67;1.67;;;;;;;;5077253;27;45444;-75
2022/05/21 13:24:13;;;;;;;;;2.00;1.00;;;;;;;;5098836;27;45514;-73
2022/05/21 13:26:39;;;;;;;;;1.00;1.00;;;;;;;;5097629;27;45438;-72
2022/05/21 13:29:40;;;;;;;;;1.00;1.00;;;;;;;;5100760;27;45303;-72
2022/05/21 13:32:18;;;;;;;;;2.00;0.67;;;;;;;;5069862;28;45800;-71
2022/05/21 13:34:43;;;;;;;;;3.67;1.33;;;;;;;;5058189;28;45507;-68
2022/05/21 13:37:09;;;;;;;;;1.33;0.00;;;;;;;;5058842;28;45451;-67
2022/05/21 13:39:35;;;;;;;;;1.00;1.00;;;;;;;;5057655;28;45230;-68
2022/05/21 13:42:05;;;;;;;;;1.00;0.33;;;;;;;;5057450;28;45342;-73
2022/05/21 13:44:34;;;;;;;;;1.00;0.00;;;;;;;;5066404;28;45725;-70
2022/05/21 13:47:02;;;;;;;;;5.00;1.00;;;;;;;;5077000;28;45511;-68
2022/05/21 13:49:29;;;;;;;;;5.33;1.67;;;;;;;;5067738;28;45352;-67
2022/05/21 13:51:55;;;;;;;;;1.00;1.00;;;;;;;;5067330;28;46992;-67
2022/05/21 13:54:26;;;;;;;;;2.00;1.67;;;;;;;;5076455;28;46072;-68
2022/05/21 13:57:01;;;;;;;;;3.00;3.00;;;;;;;;5077181;28;45277;-68
2022/05/21 13:59:27;;;;;;;;;2.00;0.00;;;;;;;;5068840;28;45496;-66
2022/05/21 14:01:57;;;;;;;;;1.33;1.00;;;;;;;;5057127;28;45550;-66
2022/05/21 14:04:30;;;;;;;;;6.00;3.00;;;;;;;;5056771;28;45430;-66
2022/05/21 14:06:55;;;;;;;;;7.67;6.33;;;;;;;;5058512;28;45296;-67
2022/05/21 14:09:24;;;;;;;;;1.00;1.00;;;;;;;;5082287;27;45391;-67
2022/05/21 14:11:57;;;;;;;;;3.67;3.00;;;;;;;;5099960;27;45286;-65
2022/05/21 14:14:27;;;;;;;;;1.33;1.33;;;;;;;;5084491;27;46237;-68
2022/05/21 14:17:13;;;;;;;;;1.33;1.00;;;;;;;;5085054;27;45433;-69
2022/05/21 14:19:40;;;;;;;;;2.33;1.00;;;;;;;;5077115;28;45373;-66
2022/05/21 14:22:21;;;;;;;;;0.33;0.33;;;;;;;;5073216;28;45594;-68
2022/05/21 14:24:48;;;;;;;;;3.67;1.67;;;;;;;;5055141;28;46822;-69
2022/05/21 14:27:27;;;;;;;;;2.00;0.00;;;;;;;;5040388;28;45692;-70
2022/05/21 14:29:56;;;;;;;;;4.00;3.00;;;;;;;;5056251;28;45322;-69
2022/05/21 14:32:40;;;;;;;;;1.00;1.00;;;;;;;;5057336;28;45420;-70
2022/05/21 14:35:20;;;;;;;;;1.00;1.00;;;;;;;;5072475;28;45867;-70
2022/05/21 14:37:47;;;;;;;;;2.00;2.00;;;;;;;;5065523;28;45565;-72
2022/05/21 14:40:13;;;;;;;;;2.00;1.00;;;;;;;;5056191;28;45410;-70
2022/05/21 14:42:38;;;;;;;;;0.00;0.00;;;;;;;;5064674;28;45457;-72
2022/05/21 14:45:14;;;;;;;;;9.00;5.00;;;;;;;;5076213;28;45923;-72
2022/05/21 14:47:54;;;;;;;;;2.00;1.00;;;;;;;;5060043;28;45479;-71
2022/05/21 14:53:03;;;;;;;;;1.00;1.00;;;;;;;;5056584;28;45289;-70
2022/05/21 14:55:28;;;;;;;;;2.00;0.33;;;;;;;;5056020;28;45452;-70
2022/05/21 14:57:56;;;;;;;;;1.00;1.00;;;;;;;;5082681;27;45410;-71
2022/05/21 15:00:22;;;;;;;;;0.00;0.00;;;;;;;;5098604;27;45484;-71
2022/05/21 15:02:48;;;;;;;;;2.33;0.00;;;;;;;;5099105;27;45449;-71
2022/05/21 15:05:13;;;;;;;;;1.00;1.00;;;;;;;;5096714;27;45476;-71
2022/05/21 15:07:50;;;;;;;;;2.67;0.00;;;;;;;;5098505;27;45425;-73
2022/05/21 15:10:16;;;;;;;;;2.00;2.00;;;;;;;;5085102;27;45448;-73
2022/05/21 15:12:41;;;;;;;;;1.33;1.00;;;;;;;;5071899;28;45313;-74
2022/05/21 15:15:08;;;;;;;;;1.00;1.00;;;;;;;;5075893;27;46655;-71
2022/05/21 15:17:33;;;;;;;;;0.33;0.33;;;;;;;;5078024;27;45373;-72
2022/05/21 15:19:58;;;;;;;;;2.00;1.00;;;;;;;;5078448;27;45385;-72
2022/05/21 15:22:35;;;;;;;;;0.33;0.33;;;;;;;;5078782;27;45367;-71
2022/05/21 15:25:00;;;;;;;;;2.00;0.00;;;;;;;;5078351;27;46745;-74